Time;durP1;ratioP1;P1;durP2;ratioP2;P2;SDS_P1;SDS_P2;PMS_P1;PMS_P2;Temp;Humidity;BMP_temperature;BMP_pressure;BME280_temperature;BME280_humidity;BME280_pressure;Samples;Min_cycle;Max_cycle;Signal;HPM_P1;HPM_P2
2023/09/19 00:00:40;;;;;;;4.70;1.17;;;15.10;99.90;;;;;;5082013;28;20039;-33
2023/09/19 00:03:06;;;;;;;2.92;1.25;;;15.00;99.90;;;;;;5052015;28;20044;-32
2023/09/19 00:05:35;;;;;;;2.97;0.95;;;14.90;99.90;;;;;;5073874;28;20048;-32
2023/09/19 00:08:04;;;;;;;3.55;1.27;;;14.90;99.90;;;;;;5069411;28;20485;-32
2023/09/19 00:10:31;;;;;;;3.35;1.40;;;14.80;99.90;;;;;;5069055;28;20041;-33
2023/09/19 00:13:05;;;;;;;3.08;1.15;;;14.70;99.90;;;;;;5069308;28;20040;-33
2023/09/19 00:15:35;;;;;;;2.72;1.00;;;14.60;99.90;;;;;;5068602;28;20439;-32
2023/09/19 00:18:01;;;;;;;3.60;1.20;;;14.60;99.90;;;;;;5070000;28;20439;-32
2023/09/19 00:20:28;;;;;;;2.08;0.98;;;14.50;99.90;;;;;;5077401;28;20128;-31
2023/09/19 00:22:53;;;;;;;3.00;1.50;;;14.50;99.90;;;;;;5051128;28;20044;-31
2023/09/19 00:25:20;;;;;;;4.18;1.67;;;14.40;99.90;;;;;;5048361;28;20526;-32
2023/09/19 00:27:51;;;;;;;3.85;1.70;;;14.40;99.90;;;;;;5035233;28;20044;-32
2023/09/19 00:30:20;;;;;;;5.55;1.63;;;14.40;99.90;;;;;;5076906;28;20221;-32
2023/09/19 00:32:47;;;;;;;4.78;1.50;;;14.30;99.90;;;;;;5072887;28;20076;-32
2023/09/19 00:35:15;;;;;;;2.80;1.70;;;14.30;99.90;;;;;;5069148;28;20537;-31
2023/09/19 00:37:42;;;;;;;6.13;1.60;;;14.20;99.90;;;;;;5070964;28;20107;-33
2023/09/19 00:40:12;;;;;;;4.65;1.52;;;14.20;99.90;;;;;;5068078;28;20108;-33
2023/09/19 00:42:39;;;;;;;9.07;2.20;;;14.20;99.90;;;;;;5069067;28;20037;-33
2023/09/19 00:45:07;;;;;;;8.07;2.53;;;14.20;99.90;;;;;;5047107;28;20115;-32
2023/09/19 00:47:33;;;;;;;3.45;1.63;;;14.10;99.90;;;;;;5072286;28;20158;-33
2023/09/19 00:49:58;;;;;;;4.65;1.90;;;14.20;99.90;;;;;;5050672;28;20072;-33
2023/09/19 00:52:25;;;;;;;7.40;2.22;;;14.10;99.90;;;;;;5068932;28;20029;-32
2023/09/19 00:54:51;;;;;;;6.00;2.10;;;14.10;99.90;;;;;;5071684;28;20044;-32
2023/09/19 00:57:19;;;;;;;4.72;1.85;;;14.10;99.90;;;;;;5075030;28;20037;-33
2023/09/19 00:59:48;;;;;;;4.25;2.25;;;14.10;99.90;;;;;;5075611;28;20049;-33
2023/09/19 01:02:14;;;;;;;9.93;2.88;;;14.10;99.90;;;;;;5071809;28;20036;-33
2023/09/19 01:04:40;;;;;;;8.07;2.58;;;14.10;99.90;;;;;;5076463;28;20044;-33
2023/09/19 01:07:08;;;;;;;10.07;2.13;;;14.10;99.90;;;;;;5075516;28;20047;-32
2023/09/19 01:09:34;;;;;;;7.93;2.30;;;14.10;99.90;;;;;;5078674;28;20066;-32
2023/09/19 01:12:04;;;;;;;7.80;2.20;;;14.10;99.90;;;;;;5080117;28;20052;-32
2023/09/19 01:14:41;;;;;;;4.38;2.08;;;14.10;99.90;;;;;;5053898;28;20055;-32
2023/09/19 01:17:24;;;;;;;9.40;2.28;;;14.10;99.90;;;;;;5079328;28;20032;-33
2023/09/19 01:20:14;;;;;;;8.52;2.40;;;14.20;99.90;;;;;;5055426;28;20036;-32
2023/09/19 01:23:04;;;;;;;9.38;2.70;;;14.20;99.90;;;;;;5073150;28;20040;-33
2023/09/19 01:25:33;;;;;;;6.72;2.50;;;14.20;99.90;;;;;;5075190;28;20079;-32
2023/09/19 01:28:27;;;;;;;6.45;2.20;;;14.20;99.90;;;;;;5077892;28;20032;-32
2023/09/19 01:30:58;;;;;;;7.60;2.30;;;14.20;99.90;;;;;;5073449;28;20467;-31
2023/09/19 01:33:25;;;;;;;5.07;2.40;;;14.10;99.90;;;;;;5077784;28;20040;-32
2023/09/19 01:35:52;;;;;;;6.03;2.30;;;14.10;99.90;;;;;;5082248;28;20131;-32
2023/09/19 01:38:19;;;;;;;8.05;3.17;;;14.10;99.90;;;;;;5082593;28;20067;-32
2023/09/19 01:41:03;;;;;;;8.57;3.40;;;14.10;99.90;;;;;;5053547;28;20036;-33
2023/09/19 01:43:40;;;;;;;8.75;3.40;;;14.10;99.90;;;;;;5052790;28;20121;-33
2023/09/19 01:46:13;;;;;;;8.80;2.50;;;14.10;99.90;;;;;;5071525;28;20029;-32
2023/09/19 01:49:06;;;;;;;6.82;2.80;;;14.00;99.90;;;;;;5086164;28;20040;-32
2023/09/19 01:51:43;;;;;;;7.28;2.97;;;14.00;99.90;;;;;;5081432;28;20040;-32
2023/09/19 01:54:12;;;;;;;8.80;3.05;;;14.00;99.90;;;;;;5079513;28;20040;-33
2023/09/19 01:56:59;;;;;;;6.60;2.92;;;14.00;99.90;;;;;;5072103;28;20107;-32
2023/09/19 01:59:35;;;;;;;10.48;3.17;;;14.00;99.90;;;;;;5050922;28;20047;-32
2023/09/19 02:02:02;;;;;;;9.68;3.25;;;14.00;99.90;;;;;;5071702;28;20124;-32
2023/09/19 02:04:27;;;;;;;7.85;2.78;;;14.00;99.90;;;;;;5054369;28;20050;-33
2023/09/19 02:06:53;;;;;;;5.68;3.00;;;13.90;99.90;;;;;;5073887;28;20040;-32
2023/09/19 02:09:19;;;;;;;4.70;2.65;;;13.90;99.90;;;;;;5064438;28;20484;-33
2023/09/19 02:11:44;;;;;;;7.82;3.65;;;13.90;99.90;;;;;;5070026;28;20078;-33
2023/09/19 02:14:10;;;;;;;7.22;3.03;;;13.90;99.90;;;;;;5075493;28;20040;-33
2023/09/19 02:16:36;;;;;;;9.48;2.63;;;13.90;99.90;;;;;;5075125;28;20040;-33
2023/09/19 02:19:05;;;;;;;8.20;3.03;;;13.90;99.90;;;;;;5075881;28;20055;-32
2023/09/19 02:21:31;;;;;;;7.72;3.25;;;13.80;99.90;;;;;;5078010;28;20051;-33
2023/09/19 02:23:58;;;;;;;9.80;3.22;;;13.80;99.90;;;;;;5073911;28;20076;-32
2023/09/19 02:26:24;;;;;;;7.15;2.55;;;13.80;99.90;;;;;;5074978;28;20044;-33
2023/09/19 02:28:50;;;;;;;7.43;2.88;;;13.70;99.90;;;;;;5077657;28;20071;-32
2023/09/19 02:31:16;;;;;;;7.80;3.10;;;13.70;99.90;;;;;;5073987;28;20487;-32
2023/09/19 02:33:43;;;;;;;6.07;2.40;;;13.80;99.90;;;;;;5075323;28;20041;-32
2023/09/19 02:36:09;;;;;;;9.27;2.53;;;13.70;99.90;;;;;;5086666;28;20072;-32
2023/09/19 02:38:35;;;;;;;5.80;2.38;;;13.70;99.90;;;;;;5077920;28;20075;-33
2023/09/19 02:41:01;;;;;;;7.43;2.53;;;13.70;99.90;;;;;;5083619;28;20506;-32
2023/09/19 02:43:27;;;;;;;7.00;2.67;;;13.70;99.90;;;;;;5069884;28;20039;-32
2023/09/19 02:45:56;;;;;;;5.78;2.50;;;13.70;99.90;;;;;;5073485;28;20499;-32
2023/09/19 02:48:22;;;;;;;5.05;2.20;;;13.70;99.90;;;;;;5067018;28;20527;-32
2023/09/19 02:50:50;;;;;;;8.48;2.67;;;13.70;99.90;;;;;;5066366;28;20135;-33
2023/09/19 02:53:16;;;;;;;6.28;2.83;;;13.70;99.90;;;;;;5076005;28;20542;-33
2023/09/19 02:55:42;;;;;;;6.55;2.20;;;13.60;99.90;;;;;;5051565;28;20123;-33
2023/09/19 02:58:10;;;;;;;6.90;2.63;;;13.60;99.90;;;;;;5063846;28;20049;-33
2023/09/19 03:00:36;;;;;;;5.28;2.33;;;13.60;99.90;;;;;;5073460;28;20068;-34
2023/09/19 03:03:02;;;;;;;6.63;2.50;;;13.60;99.90;;;;;;5071491;28;20070;-33
2023/09/19 03:05:30;;;;;;;8.77;2.83;;;13.60;99.90;;;;;;5044082;28;20123;-32
2023/09/19 03:07:56;;;;;;;5.03;2.25;;;13.60;99.90;;;;;;5075064;28;20052;-34
2023/09/19 03:10:24;;;;;;;7.57;2.45;;;13.60;99.90;;;;;;5068350;28;20041;-32
2023/09/19 03:12:50;;;;;;;8.85;3.10;;;13.50;99.90;;;;;;5070916;28;20518;-34
2023/09/19 03:15:17;;;;;;;6.38;2.67;;;13.60;99.90;;;;;;5072329;28;20065;-32
2023/09/19 03:17:44;;;;;;;5.70;2.55;;;13.50;99.90;;;;;;5077586;28;20079;-32
2023/09/19 03:20:12;;;;;;;4.47;2.58;;;13.50;99.90;;;;;;5069029;28;20043;-34
2023/09/19 03:22:39;;;;;;;8.35;2.88;;;13.50;99.90;;;;;;5075169;28;20047;-34
2023/09/19 03:25:07;;;;;;;8.77;2.38;;;13.50;99.90;;;;;;5060429;28;20035;-33
2023/09/19 03:27:40;;;;;;;5.03;2.35;;;13.50;99.90;;;;;;5069317;28;20048;-33
2023/09/19 03:30:08;;;;;;;7.32;2.60;;;13.50;99.90;;;;;;5046292;28;20530;-32
2023/09/19 03:32:43;;;;;;;6.38;2.22;;;13.60;99.90;;;;;;5075649;28;20036;-32
2023/09/19 03:35:11;;;;;;;5.07;2.10;;;13.60;99.90;;;;;;5065450;28;20036;-32
2023/09/19 03:37:36;;;;;;;4.88;2.47;;;13.60;99.90;;;;;;5054620;28;20246;-33
2023/09/19 03:40:04;;;;;;;5.57;2.13;;;13.60;99.90;;;;;;5075201;28;20032;-33
2023/09/19 03:42:31;;;;;;;6.95;2.60;;;13.70;99.90;;;;;;5075372;28;20503;-32
2023/09/19 03:44:57;;;;;;;10.00;2.63;;;13.70;99.90;;;;;;5074997;28;20495;-33
2023/09/19 03:47:23;;;;;;;6.13;2.17;;;13.70;99.90;;;;;;5076748;28;20048;-33
2023/09/19 03:49:49;;;;;;;6.20;2.33;;;13.80;99.90;;;;;;5072836;28;20028;-31
2023/09/19 03:52:17;;;;;;;6.05;2.28;;;13.80;99.90;;;;;;5068788;28;20035;-32
2023/09/19 03:54:43;;;;;;;5.85;2.63;;;13.80;99.90;;;;;;5075636;28;20052;-33
2023/09/19 03:57:09;;;;;;;6.90;2.38;;;13.90;99.90;;;;;;5084069;28;20036;-32
2023/09/19 03:59:35;;;;;;;8.80;2.92;;;13.90;99.90;;;;;;5082813;28;20044;-31
2023/09/19 04:02:02;;;;;;;9.60;3.10;;;13.90;99.90;;;;;;5076160;28;20103;-32
2023/09/19 04:04:29;;;;;;;7.60;2.60;;;13.90;99.90;;;;;;5076478;28;20094;-34
2023/09/19 04:06:54;;;;;;;7.10;2.95;;;13.90;99.90;;;;;;5078902;28;20047;-33
2023/09/19 04:09:20;;;;;;;6.35;2.60;;;13.90;99.90;;;;;;5072663;28;20045;-32
2023/09/19 04:11:46;;;;;;;7.97;3.42;;;14.00;99.90;;;;;;5078970;28;20097;-33
2023/09/19 04:14:12;;;;;;;8.20;2.75;;;14.00;99.90;;;;;;5069383;28;20037;-33
2023/09/19 04:16:38;;;;;;;7.90;2.78;;;14.00;99.90;;;;;;5067776;28;20036;-32
2023/09/19 04:19:05;;;;;;;8.63;2.60;;;14.10;99.90;;;;;;5067367;28;20098;-32
2023/09/19 04:21:31;;;;;;;7.78;3.47;;;14.00;99.90;;;;;;5064342;28;20165;-32
2023/09/19 04:23:56;;;;;;;9.85;3.13;;;14.00;99.90;;;;;;5071037;28;20135;-33
2023/09/19 04:26:22;;;;;;;9.55;3.15;;;14.00;99.90;;;;;;5071412;28;20453;-33
2023/09/19 04:28:47;;;;;;;13.90;2.92;;;14.00;99.90;;;;;;5065905;28;20577;-33
2023/09/19 04:31:14;;;;;;;9.45;3.38;;;14.00;99.90;;;;;;5064101;28;20051;-32
2023/09/19 04:33:40;;;;;;;10.77;2.85;;;13.90;99.90;;;;;;5071299;28;20049;-32
2023/09/19 04:36:07;;;;;;;10.38;3.33;;;13.90;99.90;;;;;;5079065;28;20043;-31
2023/09/19 04:38:33;;;;;;;8.65;2.90;;;13.90;99.90;;;;;;5070454;28;20062;-32
2023/09/19 04:40:59;;;;;;;13.00;3.20;;;13.90;99.90;;;;;;5080193;28;20453;-33
2023/09/19 04:43:26;;;;;;;10.82;2.95;;;13.80;99.90;;;;;;5071603;28;20120;-32
2023/09/19 04:45:55;;;;;;;12.82;2.92;;;13.80;99.90;;;;;;5080354;28;20037;-31
2023/09/19 04:48:24;;;;;;;7.25;2.58;;;13.80;99.90;;;;;;5076866;28;20127;-32
2023/09/19 04:50:50;;;;;;;9.70;2.97;;;13.80;99.90;;;;;;5057460;28;20060;-32
2023/09/19 04:53:17;;;;;;;11.80;3.42;;;13.80;99.90;;;;;;5079362;28;20033;-32
2023/09/19 04:55:43;;;;;;;7.00;2.72;;;13.80;99.90;;;;;;5069909;28;20533;-33
2023/09/19 04:58:08;;;;;;;13.10;3.15;;;13.70;99.90;;;;;;5078666;28;20028;-32
2023/09/19 05:00:35;;;;;;;12.65;3.50;;;13.70;99.90;;;;;;5053149;28;20040;-32
2023/09/19 05:03:01;;;;;;;9.98;3.40;;;13.70;99.90;;;;;;5073338;28;20050;-32
2023/09/19 05:05:26;;;;;;;9.32;3.00;;;13.70;99.90;;;;;;5082204;28;20036;-33
2023/09/19 05:07:54;;;;;;;8.68;2.95;;;13.70;99.90;;;;;;5071639;28;20089;-32
2023/09/19 05:10:20;;;;;;;9.27;2.70;;;13.70;99.90;;;;;;5051626;28;20097;-35
2023/09/19 05:12:48;;;;;;;9.48;3.38;;;13.70;99.90;;;;;;5078995;28;20028;-34
2023/09/19 05:15:17;;;;;;;10.98;2.92;;;13.70;99.90;;;;;;5076547;28;20051;-32
2023/09/19 05:17:49;;;;;;;8.88;2.55;;;13.70;99.90;;;;;;5083970;28;20389;-32
2023/09/19 05:20:26;;;;;;;6.57;2.42;;;13.70;99.90;;;;;;5079733;28;20071;-34
2023/09/19 05:23:02;;;;;;;8.32;3.03;;;13.70;99.90;;;;;;5063326;28;20037;-33
2023/09/19 05:25:30;;;;;;;10.23;3.33;;;13.60;99.90;;;;;;5049817;28;20043;-32
2023/09/19 05:27:57;;;;;;;5.20;2.42;;;13.60;99.90;;;;;;5068314;28;20120;-32
2023/09/19 05:30:24;;;;;;;8.48;2.65;;;13.60;99.90;;;;;;5070017;28;20066;-32
2023/09/19 05:32:51;;;;;;;8.88;3.00;;;13.60;99.90;;;;;;5065774;28;20380;-33
2023/09/19 05:35:17;;;;;;;8.30;2.60;;;13.50;99.90;;;;;;5070767;28;20036;-32
2023/09/19 05:37:43;;;;;;;10.32;2.92;;;13.50;99.90;;;;;;5071384;28;20101;-33
2023/09/19 05:40:11;;;;;;;8.23;2.50;;;13.50;99.90;;;;;;5072269;28;20039;-32
2023/09/19 05:42:39;;;;;;;5.57;2.22;;;13.50;99.90;;;;;;5074567;28;20032;-33
2023/09/19 05:45:06;;;;;;;9.05;2.90;;;13.40;99.90;;;;;;5072056;28;20070;-32
2023/09/19 05:47:32;;;;;;;9.48;2.47;;;13.40;99.90;;;;;;5077347;28;20040;-33
2023/09/19 05:49:59;;;;;;;6.07;2.45;;;13.40;99.90;;;;;;5054347;28;20066;-33
2023/09/19 05:52:25;;;;;;;10.55;3.00;;;13.40;99.90;;;;;;5068909;28;20562;-32
2023/09/19 05:54:51;;;;;;;12.88;2.78;;;13.40;99.90;;;;;;5075812;28;20121;-33
2023/09/19 05:57:16;;;;;;;12.18;3.08;;;13.40;99.90;;;;;;5068417;28;20056;-33
2023/09/19 05:59:43;;;;;;;8.13;2.92;;;13.40;99.90;;;;;;5077159;28;20032;-33
2023/09/19 06:02:09;;;;;;;8.15;2.80;;;13.30;99.90;;;;;;5075592;28;20052;-33
2023/09/19 06:04:35;;;;;;;9.98;2.53;;;13.40;99.90;;;;;;5077018;28;20135;-33
2023/09/19 06:07:03;;;;;;;11.95;3.13;;;13.40;99.90;;;;;;5073076;28;20176;-33
2023/09/19 06:09:32;;;;;;;11.68;3.03;;;13.40;99.90;;;;;;5076217;28;20048;-32
2023/09/19 06:12:00;;;;;;;8.50;3.08;;;13.50;99.90;;;;;;5053556;28;20067;-34
2023/09/19 06:14:25;;;;;;;6.28;2.80;;;13.50;99.90;;;;;;5053461;28;20037;-32
2023/09/19 06:16:54;;;;;;;10.95;2.95;;;13.60;99.90;;;;;;5074135;28;20044;-33
2023/09/19 06:19:22;;;;;;;6.95;2.30;;;13.60;99.90;;;;;;5055598;28;20047;-33
2023/09/19 06:21:49;;;;;;;8.27;2.75;;;13.60;99.90;;;;;;5074504;28;20383;-33
2023/09/19 06:24:15;;;;;;;10.35;2.78;;;13.70;99.90;;;;;;5075056;28;20419;-32
2023/09/19 06:26:40;;;;;;;7.07;2.70;;;13.70;99.90;;;;;;5081324;28;20047;-32
2023/09/19 06:29:07;;;;;;;12.95;2.97;;;13.70;99.90;;;;;;5073683;28;20039;-34
2023/09/19 06:31:33;;;;;;;8.82;2.78;;;13.80;99.90;;;;;;5072668;28;20042;-33
2023/09/19 06:33:59;;;;;;;7.72;2.50;;;13.80;99.90;;;;;;5074572;28;20032;-33
2023/09/19 06:36:25;;;;;;;8.63;2.75;;;13.90;99.90;;;;;;5048766;28;20463;-34
2023/09/19 06:38:53;;;;;;;9.45;3.03;;;13.80;99.90;;;;;;5054855;28;20135;-33
2023/09/19 06:41:21;;;;;;;7.05;3.05;;;13.90;99.90;;;;;;5072070;28;20104;-33
2023/09/19 06:43:46;;;;;;;13.40;2.75;;;13.90;99.90;;;;;;5078229;28;20105;-33
2023/09/19 06:46:12;;;;;;;7.05;2.47;;;13.90;99.90;;;;;;5070782;28;20032;-32
2023/09/19 06:48:38;;;;;;;10.23;2.15;;;13.80;99.90;;;;;;5076820;28;20028;-33
2023/09/19 06:51:05;;;;;;;8.32;2.92;;;13.80;99.90;;;;;;5076411;28;20044;-33
2023/09/19 06:53:35;;;;;;;7.15;2.67;;;13.90;99.90;;;;;;5074908;28;20103;-33
2023/09/19 06:56:01;;;;;;;7.60;2.95;;;13.90;99.90;;;;;;5075417;28;20047;-33
2023/09/19 06:58:27;;;;;;;6.78;2.55;;;14.00;99.90;;;;;;5071473;28;20052;-34
2023/09/19 07:00:53;;;;;;;6.40;2.80;;;14.00;99.90;;;;;;5074383;28;20029;-34
2023/09/19 07:03:21;;;;;;;9.35;3.22;;;14.10;99.90;;;;;;5073778;28;20047;-33
2023/09/19 07:05:48;;;;;;;11.15;2.72;;;14.10;99.90;;;;;;5077915;28;20036;-33
2023/09/19 07:08:15;;;;;;;8.57;2.60;;;14.10;99.90;;;;;;5074157;28;20074;-32
2023/09/19 07:10:44;;;;;;;4.93;2.00;;;14.20;99.90;;;;;;5074102;28;20028;-32
2023/09/19 07:13:10;;;;;;;9.48;2.17;;;14.30;99.90;;;;;;5085065;28;20032;-33
2023/09/19 07:15:41;;;;;;;8.70;2.30;;;14.40;99.90;;;;;;5077299;28;20127;-36
2023/09/19 07:18:10;;;;;;;6.38;2.35;;;14.40;99.90;;;;;;5075964;28;20423;-32
2023/09/19 07:20:36;;;;;;;8.57;2.63;;;14.50;99.90;;;;;;5079830;28;20089;-33
2023/09/19 07:23:02;;;;;;;8.98;3.00;;;14.50;99.90;;;;;;5068801;28;20040;-33
2023/09/19 07:25:29;;;;;;;8.50;2.78;;;14.60;99.90;;;;;;5052945;28;20101;-33
2023/09/19 07:28:01;;;;;;;9.85;2.78;;;14.70;99.90;;;;;;5077434;28;20033;-34
2023/09/19 07:30:27;;;;;;;7.78;2.90;;;14.80;99.90;;;;;;5068479;28;20490;-33
2023/09/19 07:32:53;;;;;;;7.18;2.33;;;14.90;99.90;;;;;;5059389;28;20040;-33
2023/09/19 07:35:22;;;;;;;11.57;3.10;;;14.90;99.90;;;;;;5076117;28;20036;-32
2023/09/19 07:37:56;;;;;;;7.85;2.65;;;14.90;99.90;;;;;;5065095;28;20108;-34
2023/09/19 07:40:24;;;;;;;7.60;2.65;;;15.00;99.90;;;;;;5069926;28;20043;-31
2023/09/19 07:42:50;;;;;;;7.95;2.38;;;15.10;99.90;;;;;;5070133;28;20447;-34
2023/09/19 07:45:17;;;;;;;8.32;2.63;;;15.20;99.90;;;;;;5068863;28;20067;-33
2023/09/19 07:47:50;;;;;;;9.10;2.55;;;15.30;99.90;;;;;;5071513;28;20047;-33
2023/09/19 07:50:19;;;;;;;9.52;2.42;;;15.40;99.90;;;;;;5054106;28;20044;-33
2023/09/19 07:52:50;;;;;;;7.80;2.25;;;15.60;99.90;;;;;;5074031;28;20442;-34
2023/09/19 07:55:17;;;;;;;8.68;2.30;;;15.90;99.90;;;;;;5050384;28;20088;-33
2023/09/19 07:57:43;;;;;;;10.45;3.15;;;15.90;99.90;;;;;;5069486;28;20748;-34
2023/09/19 08:00:10;;;;;;;9.80;2.70;;;15.90;99.90;;;;;;5076552;28;20037;-33
2023/09/19 08:02:38;;;;;;;9.30;2.30;;;16.00;99.90;;;;;;5067985;28;20414;-35
2023/09/19 08:05:09;;;;;;;7.15;2.92;;;16.10;99.90;;;;;;5074650;28;20394;-33
2023/09/19 08:07:36;;;;;;;11.98;3.10;;;16.20;99.90;;;;;;5077181;28;20044;-34
2023/09/19 08:10:03;;;;;;;8.70;2.70;;;16.20;99.90;;;;;;5072431;28;20028;-32
2023/09/19 08:12:30;;;;;;;9.52;2.90;;;16.20;99.90;;;;;;5054272;28;20044;-34
2023/09/19 08:14:56;;;;;;;11.20;2.55;;;16.20;99.90;;;;;;5071885;28;20472;-33
2023/09/19 08:17:22;;;;;;;8.70;2.90;;;16.30;99.90;;;;;;5083457;28;20033;-33
2023/09/19 08:19:52;;;;;;;10.48;2.80;;;16.40;99.90;;;;;;5078706;28;20036;-32
2023/09/19 08:22:19;;;;;;;7.60;2.45;;;16.60;99.90;;;;;;5054209;28;20032;-33
2023/09/19 08:24:46;;;;;;;6.25;2.67;;;16.60;99.90;;;;;;5077686;28;20391;-32
2023/09/19 08:27:12;;;;;;;9.57;2.78;;;16.60;99.90;;;;;;5079211;28;20119;-32
2023/09/19 08:29:38;;;;;;;8.98;2.45;;;16.60;99.90;;;;;;5079025;28;20078;-33
2023/09/19 08:32:04;;;;;;;8.80;2.63;;;16.60;99.90;;;;;;5073559;28;20045;-32
2023/09/19 08:34:34;;;;;;;12.40;3.00;;;16.80;99.90;;;;;;5046968;28;20842;-34
2023/09/19 08:36:59;;;;;;;9.50;2.60;;;17.00;99.90;;;;;;5073463;28;20028;-34
2023/09/19 08:39:25;;;;;;;13.35;3.25;;;17.00;99.90;;;;;;5075191;28;20098;-33
2023/09/19 08:42:01;;;;;;;11.25;3.22;;;17.10;99.90;;;;;;5070681;28;20407;-33
2023/09/19 08:44:30;;;;;;;10.23;3.03;;;17.00;99.90;;;;;;5074204;28;20047;-33
2023/09/19 08:47:14;;;;;;;9.77;3.10;;;17.10;99.90;;;;;;5079650;28;20068;-33
2023/09/19 08:49:48;;;;;;;;;;;17.20;99.90;;;;;;5082046;28;20033;-34
2023/09/19 08:52:22;;;;;;;8.57;3.10;;;17.40;99.90;;;;;;5078992;28;19919;-33
2023/09/19 08:54:51;;;;;;;9.85;2.83;;;17.60;99.90;;;;;;5076113;28;20047;-32
2023/09/19 08:57:21;;;;;;;9.73;3.22;;;17.70;99.90;;;;;;5070632;28;20415;-33
2023/09/19 08:59:49;;;;;;;11.20;3.17;;;17.70;99.90;;;;;;5050533;28;20108;-33
2023/09/19 09:02:17;;;;;;;6.75;2.90;;;17.90;99.90;;;;;;5078978;28;20032;-33
2023/09/19 09:04:44;;;;;;;9.00;2.97;;;18.00;99.90;;;;;;5076229;28;20101;-33
2023/09/19 09:07:13;;;;;;;9.50;2.70;;;18.10;99.90;;;;;;5075321;28;20051;-34
2023/09/19 09:09:42;;;;;;;7.38;2.70;;;18.20;99.90;;;;;;5082575;28;20033;-35
2023/09/19 09:12:13;;;;;;;9.95;3.00;;;18.30;99.90;;;;;;5084459;28;20086;-32
2023/09/19 09:14:49;;;;;;;10.02;3.00;;;18.50;99.90;;;;;;5077788;28;20046;-35
2023/09/19 09:17:17;;;;;;;8.00;2.40;;;18.70;99.90;;;;;;5068110;28;20109;-34
2023/09/19 09:19:43;;;;;;;9.85;3.00;;;18.70;99.90;;;;;;5070646;28;20098;-34
2023/09/19 09:22:10;;;;;;;7.68;3.03;;;18.80;99.90;;;;;;5075526;28;20391;-35
2023/09/19 09:24:38;;;;;;;9.45;2.80;;;19.00;99.90;;;;;;5078123;28;20048;-34
2023/09/19 09:27:05;;;;;;;6.53;2.55;;;19.10;99.90;;;;;;5079836;28;20036;-37
2023/09/19 09:29:51;;;;;;;11.15;3.22;;;19.20;99.90;;;;;;5076698;28;20032;-34
2023/09/19 09:32:24;;;;;;;7.93;2.83;;;19.30;99.90;;;;;;5077925;28;20115;-34
2023/09/19 09:34:55;;;;;;;8.73;2.88;;;19.40;99.90;;;;;;5071274;28;20256;-33
2023/09/19 09:37:22;;;;;;;9.18;2.60;;;19.40;99.90;;;;;;5064889;28;20404;-34
2023/09/19 09:42:40;;;;;;;11.90;2.75;;;19.50;99.90;;;;;;5072563;28;20044;-33
2023/09/19 09:48:14;;;;;;;5.30;2.40;;;19.50;99.90;;;;;;5078939;28;20388;-33
2023/09/19 09:50:56;;;;;;;10.73;3.15;;;19.40;99.90;;;;;;5073577;28;20037;-34
2023/09/19 09:53:25;;;;;;;8.35;2.65;;;19.40;99.90;;;;;;5078270;28;20041;-33
2023/09/19 09:56:07;;;;;;;8.00;2.47;;;19.50;99.90;;;;;;5079242;28;20105;-34
2023/09/19 09:58:35;;;;;;;13.98;3.60;;;19.70;99.90;;;;;;5079435;28;20469;-33
2023/09/19 10:01:14;;;;;;;9.38;3.08;;;19.70;99.90;;;;;;5073563;28;20046;-34
2023/09/19 10:03:43;;;;;;;10.38;3.35;;;19.80;99.90;;;;;;5084517;28;20047;-35
2023/09/19 10:09:11;;;;;;;8.23;2.70;;;19.70;99.90;;;;;;5077064;28;20045;-36
2023/09/19 10:12:05;;;;;;;9.98;2.78;;;19.60;99.90;;;;;;5073841;28;20044;-32
2023/09/19 10:14:35;;;;;;;9.57;2.85;;;19.70;99.90;;;;;;5067966;28;20052;-34
2023/09/19 10:17:04;;;;;;;11.30;3.10;;;20.00;99.90;;;;;;5065051;28;20040;-33
2023/09/19 10:19:36;;;;;;;12.45;2.88;;;20.20;99.90;;;;;;5071452;28;20048;-34
2023/09/19 10:22:04;;;;;;;8.10;2.72;;;20.30;99.90;;;;;;5078939;28;20050;-35
2023/09/19 10:24:31;;;;;;;9.52;3.40;;;20.20;99.90;;;;;;5077047;28;20256;-34
2023/09/19 10:26:57;;;;;;;10.05;3.38;;;20.40;99.90;;;;;;5073511;28;20078;-34
2023/09/19 10:29:26;;;;;;;9.35;3.10;;;20.30;99.90;;;;;;5054621;28;20088;-34
2023/09/19 10:31:53;;;;;;;9.20;2.92;;;20.40;99.90;;;;;;5074802;28;20415;-33
2023/09/19 10:34:22;;;;;;;10.35;2.95;;;20.40;99.90;;;;;;5070710;28;20044;-34
2023/09/19 10:36:50;;;;;;;11.60;3.35;;;20.50;99.90;;;;;;5067866;28;20047;-34
2023/09/19 10:39:19;;;;;;;10.05;3.35;;;20.70;99.90;;;;;;5042630;28;20037;-32
2023/09/19 10:41:53;;;;;;;9.30;2.67;;;20.50;99.90;;;;;;5070158;28;20411;-37
2023/09/19 10:44:25;;;;;;;10.98;2.88;;;20.30;99.90;;;;;;5048818;28;20101;-34
2023/09/19 10:46:53;;;;;;;9.30;3.30;;;20.10;99.90;;;;;;5076771;28;20107;-34
2023/09/19 10:49:21;;;;;;;10.18;2.95;;;19.90;99.90;;;;;;5068849;28;20457;-33
2023/09/19 10:51:49;;;;;;;8.00;2.70;;;19.90;99.90;;;;;;5073974;28;20115;-34
2023/09/19 10:54:26;;;;;;;9.18;2.85;;;19.90;99.90;;;;;;5076141;28;20045;-32
2023/09/19 10:56:53;;;;;;;9.43;2.97;;;20.10;99.90;;;;;;5079304;28;20028;-32
2023/09/19 10:59:20;;;;;;;5.80;2.20;;;20.30;99.90;;;;;;5072216;28;20032;-34
2023/09/19 11:01:52;;;;;;;10.00;2.85;;;20.30;99.90;;;;;;5072385;28;20495;-33
2023/09/19 11:04:24;;;;;;;7.60;2.90;;;20.20;99.90;;;;;;5081443;28;20692;-33
2023/09/19 11:07:03;;;;;;;8.05;2.90;;;20.00;99.90;;;;;;5075680;28;20050;-32
2023/09/19 11:09:54;;;;;;;9.35;2.83;;;19.70;99.90;;;;;;5054326;28;20579;-34
2023/09/19 11:12:29;;;;;;;11.30;2.58;;;19.60;99.90;;;;;;5080451;28;20043;-33
2023/09/19 11:14:55;;;;;;;8.38;2.33;;;19.70;99.90;;;;;;5077328;28;20494;-33
2023/09/19 11:17:21;;;;;;;8.18;2.63;;;19.90;99.90;;;;;;5072363;28;20035;-33
2023/09/19 11:22:49;;;;;;;6.05;2.28;;;19.70;99.90;;;;;;5075916;28;20048;-33
2023/09/19 11:25:30;;;;;;;8.93;2.50;;;19.70;99.90;;;;;;5081993;28;20555;-33
2023/09/19 11:28:21;;;;;;;6.28;2.15;;;19.80;99.90;;;;;;5083125;28;20047;-33
2023/09/19 11:30:55;;;;;;;12.63;2.70;;;19.80;99.90;;;;;;5069302;28;20411;-34
2023/09/19 11:33:25;;;;;;;;;;;19.90;99.90;;;;;;5073527;28;20055;-34
2023/09/19 11:36:12;;;;;;;6.05;2.55;;;19.90;99.90;;;;;;5082430;28;20298;-33
2023/09/19 11:38:52;;;;;;;10.57;2.90;;;20.00;99.90;;;;;;5071333;28;20045;-32
2023/09/19 11:41:21;;;;;;;7.57;2.05;;;20.50;99.90;;;;;;5073233;28;20063;-33
2023/09/19 11:43:51;;;;;;;7.45;2.55;;;21.00;99.90;;;;;;5068334;28;20462;-34
2023/09/19 11:46:21;;;;;;;8.40;2.40;;;21.40;99.90;;;;;;5070367;28;20546;-33
2023/09/19 11:48:49;;;;;;;7.75;2.33;;;21.50;99.90;;;;;;5072250;28;20499;-33
2023/09/19 11:51:22;;;;;;;6.28;2.28;;;21.30;99.90;;;;;;5052149;28;20032;-34
2023/09/19 11:53:55;;;;;;;9.55;2.30;;;21.10;99.90;;;;;;5076564;28;20491;-33
2023/09/19 11:56:27;;;;;;;6.70;2.78;;;20.90;99.90;;;;;;5077463;28;20048;-34
2023/09/19 11:58:54;;;;;;;7.70;2.50;;;20.60;99.90;;;;;;5075781;28;20389;-34
2023/09/19 12:01:28;;;;;;;8.82;2.58;;;20.60;99.90;;;;;;5038350;28;20039;-33
2023/09/19 12:03:59;;;;;;;9.55;2.50;;;20.50;99.90;;;;;;5070668;28;20028;-35
2023/09/19 12:06:32;;;;;;;12.75;2.45;;;20.30;99.90;;;;;;5071005;28;20040;-33
2023/09/19 12:08:59;;;;;;;;;;;20.00;99.90;;;;;;5076052;28;20096;-34
2023/09/19 12:11:30;;;;;;;6.15;2.35;;;19.80;99.90;;;;;;5054314;28;20405;-36
2023/09/19 12:14:00;;;;;;;6.82;2.10;;;19.60;99.90;;;;;;5065163;28;20098;-35
2023/09/19 12:16:30;;;;;;;5.57;2.28;;;19.50;99.90;;;;;;5083810;28;20043;-35
2023/09/19 12:18:57;;;;;;;9.43;2.88;;;19.50;99.90;;;;;;5047085;28;20130;-33
2023/09/19 12:21:36;;;;;;;9.73;2.33;;;19.90;99.90;;;;;;5065904;28;20037;-34
2023/09/19 12:24:13;;;;;;;6.72;2.28;;;20.50;99.90;;;;;;5065655;28;20032;-34
2023/09/19 12:26:47;;;;;;;5.68;1.80;;;20.90;99.90;;;;;;5078061;28;20391;-33
2023/09/19 12:29:14;;;;;;;6.50;2.00;;;21.00;99.90;;;;;;5062774;28;20408;-34
2023/09/19 12:31:59;;;;;;;8.27;2.63;;;21.30;99.90;;;;;;5073850;28;20422;-35
2023/09/19 12:34:27;;;;;;;6.68;1.90;;;21.50;99.90;;;;;;5064795;28;20121;-35
2023/09/19 12:37:22;;;;;;;7.22;2.42;;;21.10;99.90;;;;;;5067292;28;20037;-32
2023/09/19 12:39:56;;;;;;;6.03;1.80;;;20.50;99.90;;;;;;5058372;28;20040;-34
2023/09/19 12:42:32;;;;;;;7.28;2.65;;;20.20;99.90;;;;;;5059057;28;20461;-33
2023/09/19 12:45:00;;;;;;;5.78;2.10;;;20.00;99.90;;;;;;5069857;28;20384;-33
2023/09/19 12:47:28;;;;;;;7.45;2.42;;;20.30;99.90;;;;;;5066574;28;20048;-34
2023/09/19 12:50:16;;;;;;;8.13;2.40;;;20.60;99.90;;;;;;5075635;28;20086;-33
2023/09/19 12:52:49;;;;;;;8.07;2.53;;;20.70;99.90;;;;;;5066566;28;20041;-33
2023/09/19 12:55:26;;;;;;;7.03;2.30;;;20.70;99.90;;;;;;5074866;28;20569;-33
2023/09/19 12:58:12;;;;;;;7.82;2.80;;;20.50;99.90;;;;;;5067860;28;20062;-33
2023/09/19 13:00:44;;;;;;;6.50;2.20;;;20.30;99.90;;;;;;5077841;28;20036;-35
2023/09/19 13:03:28;;;;;;;9.40;2.70;;;20.20;99.90;;;;;;5077285;28;20038;-33
2023/09/19 13:06:02;;;;;;;8.23;2.17;;;20.10;99.90;;;;;;5081272;28;20115;-32
2023/09/19 13:08:32;;;;;;;7.72;2.38;;;20.00;99.90;;;;;;5077742;28;20172;-34